Time;durP1;ratioP1;P1;durP2;ratioP2;P2;SDS_P1;SDS_P2;PMS_P1;PMS_P2;Temp;Humidity;BMP_temperature;BMP_pressure;BME280_temperature;BME280_humidity;BME280_pressure;Samples;Min_cycle;Max_cycle;Signal;HPM_P1;HPM_P2
2022/05/20 00:00:05;;;;;;;331.57;135.93;;;;;;;14.79;60.73;100677.66;339959;29;803;-76
2022/05/20 00:00:17;;;;;;;331.05;134.77;;;;;;;14.80;60.63;100675.88;339859;29;1331;-76
2022/05/20 00:00:27;;;;;;;330.38;134.43;;;;;;;14.80;60.52;100681.13;337036;29;1996;-76
2022/05/20 00:00:37;;;;;;;327.95;134.68;;;;;;;14.79;60.71;100677.66;337129;29;2444;-76
2022/05/20 00:00:49;;;;;;;328.53;135.93;;;;;;;14.82;60.62;100680.16;339934;29;915;-76
2022/05/20 00:01:00;;;;;;;328.73;134.88;;;;;;;14.84;60.55;100678.31;337279;29;1324;-76
2022/05/20 00:01:11;;;;;;;329.75;134.02;;;;;;;14.84;60.75;100680.97;337484;29;926;-76
2022/05/20 00:01:21;;;;;;;328.98;133.93;;;;;;;14.82;60.79;100680.16;336017;29;1366;-75
2022/05/20 00:01:33;;;;;;;327.85;135.05;;;;;;;14.82;60.69;100682.78;337589;29;1567;-76
2022/05/20 00:01:43;;;;;;;329.20;137.05;;;;;;;14.84;60.76;100680.97;336162;29;969;-76
2022/05/20 00:01:54;;;;;;;331.60;137.43;;;;;;;14.82;60.70;100682.78;336235;29;1304;-75
2022/05/20 00:02:04;;;;;;;331.60;136.90;;;;;;;14.81;60.67;100675.81;339538;29;1400;-76
2022/05/20 00:02:15;;;;;;;330.87;136.80;;;;;;;14.81;60.73;100681.09;338760;29;1579;-76
2022/05/20 00:02:25;;;;;;;327.85;136.32;;;;;;;14.81;60.63;100681.09;337299;29;1198;-76
2022/05/20 00:02:36;;;;;;;327.27;135.27;;;;;;;14.80;61.02;100682.00;334814;29;815;-76
2022/05/20 00:02:46;;;;;;;325.88;134.50;;;;;;;14.81;61.28;100678.44;338757;29;818;-76
2022/05/20 00:02:56;;;;;;;327.20;134.73;;;;;;;14.78;61.10;100681.22;337253;29;1390;-76
2022/05/20 00:03:07;;;;;;;326.53;132.53;;;;;;;14.78;60.84;100675.94;337428;29;1569;-76
2022/05/20 00:03:17;;;;;;;328.43;132.40;;;;;;;14.78;60.84;100680.34;336003;29;1431;-75
2022/05/20 00:03:29;;;;;;;328.67;132.25;;;;;;;14.80;61.36;100674.09;337366;29;1332;-75
2022/05/20 00:03:39;;;;;;;328.80;133.43;;;;;;;14.82;61.11;100682.78;338712;29;858;-75
2022/05/20 00:03:50;;;;;;;327.95;133.02;;;;;;;14.79;61.04;100682.91;337489;29;834;-76
2022/05/20 00:04:00;;;;;;;329.20;133.33;;;;;;;14.78;60.98;100675.94;337165;29;1456;-76
2022/05/20 00:04:11;;;;;;;330.08;135.40;;;;;;;14.80;61.06;100679.38;336234;29;830;-76
2022/05/20 00:04:21;;;;;;;328.03;135.57;;;;;;;14.81;61.24;100678.44;338631;29;935;-76
2022/05/20 00:04:32;;;;;;;324.10;133.63;;;;;;;14.81;60.84;100673.19;338749;29;1348;-76
2022/05/20 00:04:42;;;;;;;325.43;133.30;;;;;;;14.80;61.02;100674.09;338716;29;997;-76
2022/05/20 00:04:52;;;;;;;328.95;134.10;;;;;;;14.80;61.05;100668.81;335978;29;1496;-76
2022/05/20 00:05:03;;;;;;;329.73;135.97;;;;;;;14.82;61.11;100676.66;338477;29;1594;-76
2022/05/20 00:05:14;;;;;;;329.88;136.73;;;;;;;14.83;60.88;100679.25;337215;29;1194;-76
2022/05/20 00:05:26;;;;;;;328.62;135.08;;;;;;;14.82;61.15;100677.53;339453;29;1607;-75
2022/05/20 00:05:37;;;;;;;329.08;134.35;;;;;;;14.83;60.76;100673.09;338541;29;1384;-76
2022/05/20 00:05:48;;;;;;;328.40;136.05;;;;;;;14.78;61.04;100673.31;336569;29;3055;-76
2022/05/20 00:05:59;;;;;;;329.83;137.23;;;;;;;14.76;60.93;100672.50;335801;29;2841;-76
2022/05/20 00:06:09;;;;;;;335.13;139.88;;;;;;;14.77;61.33;100670.72;341205;28;1383;-76
2022/05/20 00:06:20;;;;;;;336.90;139.53;;;;;;;14.77;61.42;100674.22;339613;29;2910;-76
2022/05/20 00:06:31;;;;;;;337.08;139.68;;;;;;;14.76;61.40;100667.22;341310;29;874;-76
2022/05/20 00:06:42;;;;;;;333.40;136.88;;;;;;;14.78;61.36;100675.06;337201;29;1419;-76
2022/05/20 00:06:52;;;;;;;335.25;137.43;;;;;;;14.78;60.94;100672.44;339869;29;1210;-76
2022/05/20 00:07:03;;;;;;;333.17;137.03;;;;;;;14.79;61.31;100672.38;339256;29;1299;-76
2022/05/20 00:07:14;;;;;;;330.70;136.23;;;;;;;14.80;61.19;100682.00;338487;29;1317;-76
2022/05/20 00:07:24;;;;;;;327.98;133.80;;;;;;;14.79;61.27;100675.00;338620;29;1323;-76
2022/05/20 00:07:35;;;;;;;328.93;133.00;;;;;;;14.78;61.23;100668.03;339875;29;1353;-76
2022/05/20 00:07:46;;;;;;;329.33;134.13;;;;;;;14.78;60.90;100669.81;336111;29;1281;-76
2022/05/20 00:07:56;;;;;;;331.07;136.27;;;;;;;14.77;61.05;100674.22;338454;29;1356;-76
2022/05/20 00:08:07;;;;;;;333.73;136.52;;;;;;;14.76;61.29;100669.88;337312;29;1733;-76
2022/05/20 00:08:17;;;;;;;335.08;136.57;;;;;;;14.76;61.07;100667.22;337296;29;1154;-76
2022/05/20 00:08:28;;;;;;;331.23;135.00;;;;;;;14.74;61.10;100674.34;336035;29;1090;-76
2022/05/20 00:08:39;;;;;;;326.98;132.88;;;;;;;14.75;61.04;100673.41;337388;29;1186;-76
2022/05/20 00:08:49;;;;;;;327.60;129.80;;;;;;;14.73;61.40;100671.81;336048;29;764;-78
2022/05/20 00:09:00;;;;;;;330.03;130.67;;;;;;;14.72;60.80;100676.22;339801;29;1250;-77
2022/05/20 00:09:10;;;;;;;331.42;132.75;;;;;;;14.72;61.26;100673.56;338520;29;874;-76
2022/05/20 00:09:21;;;;;;;330.70;136.10;;;;;;;14.71;61.08;100677.13;337745;29;1560;-76
2022/05/20 00:09:32;;;;;;;331.08;136.07;;;;;;;14.70;61.29;100671.94;341215;29;1228;-76
2022/05/20 00:09:42;;;;;;;329.92;135.32;;;;;;;14.69;61.49;100671.06;339872;29;1328;-76
2022/05/20 00:09:52;;;;;;;333.67;136.23;;;;;;;14.71;60.99;100671.88;335965;29;1323;-76
2022/05/20 00:10:03;;;;;;;333.33;136.67;;;;;;;14.71;61.26;100674.50;338518;29;1335;-76
2022/05/20 00:10:17;;;;;;;334.35;136.70;;;;;;;14.70;61.30;100672.78;338238;29;1416;-76
2022/05/20 00:10:28;;;;;;;326.77;131.68;;;;;;;14.71;60.94;100668.38;337423;29;2102;-76
2022/05/20 00:10:39;;;;;;;326.73;130.98;;;;;;;14.70;61.18;100675.41;338563;29;1292;-76
2022/05/20 00:10:50;;;;;;;329.80;134.00;;;;;;;14.71;61.19;100671.88;337258;29;1321;-76
2022/05/20 00:11:01;;;;;;;330.27;133.55;;;;;;;14.73;61.21;100677.91;337358;29;895;-76
2022/05/20 00:11:11;;;;;;;332.13;136.33;;;;;;;14.71;61.17;100665.72;338498;29;1301;-76
2022/05/20 00:11:22;;;;;;;332.63;135.40;;;;;;;14.72;61.01;100678.84;338655;29;973;-76
2022/05/20 00:11:32;;;;;;;334.33;137.03;;;;;;;14.73;61.05;100680.53;334778;29;811;-76
2022/05/20 00:11:42;;;;;;;332.00;133.43;;;;;;;14.71;61.17;100673.63;338824;29;1195;-76
2022/05/20 00:11:54;;;;;;;334.35;135.20;;;;;;;14.70;61.50;100672.78;340558;29;1690;-76
2022/05/20 00:12:05;;;;;;;332.45;134.75;;;;;;;14.72;61.27;100681.47;337351;29;1276;-76
2022/05/20 00:12:17;;;;;;;330.60;134.55;;;;;;;14.71;61.09;100674.50;335975;29;1707;-76
2022/05/20 00:12:29;;;;;;;326.35;133.10;;;;;;;14.73;61.16;100679.72;339578;29;1703;-76
2022/05/20 00:12:40;;;;;;;328.58;133.75;;;;;;;14.74;61.24;100669.06;337294;29;1117;-76
2022/05/20 00:12:51;;;;;;;329.38;133.98;;;;;;;14.74;60.99;100674.34;337321;29;1347;-76
2022/05/20 00:13:01;;;;;;;328.83;132.80;;;;;;;14.74;61.10;100676.97;339841;29;1345;-76
2022/05/20 00:13:12;;;;;;;328.83;132.45;;;;;;;14.75;61.03;100670.78;338538;29;1315;-76
2022/05/20 00:13:24;;;;;;;326.33;131.32;;;;;;;14.75;60.81;100669.94;337243;29;1210;-76
2022/05/20 00:13:35;;;;;;;327.52;133.45;;;;;;;14.75;60.84;100675.19;339803;28;1513;-76
2022/05/20 00:13:45;;;;;;;327.52;133.00;;;;;;;14.74;60.73;100674.34;336129;29;823;-76
2022/05/20 00:13:56;;;;;;;328.70;132.57;;;;;;;14.74;60.89;100676.97;337187;29;1198;-76
2022/05/20 00:14:06;;;;;;;327.35;130.77;;;;;;;14.73;60.78;100670.00;339445;29;1257;-76
2022/05/20 00:14:17;;;;;;;328.03;130.40;;;;;;;14.74;60.59;100673.47;338566;29;890;-76
2022/05/20 00:14:27;;;;;;;328.52;131.52;;;;;;;14.73;60.89;100672.63;338609;29;1288;-76
2022/05/20 00:14:38;;;;;;;330.20;131.73;;;;;;;14.72;60.63;100672.72;338461;29;1755;-76
2022/05/20 00:14:48;;;;;;;328.77;131.02;;;;;;;14.68;60.71;100671.13;338796;29;1261;-76
2022/05/20 00:14:58;;;;;;;331.57;133.93;;;;;;;14.67;60.99;100678.19;335777;29;2749;-75
2022/05/20 00:15:10;;;;;;;332.98;135.25;;;;;;;14.66;60.95;100676.47;338046;29;3621;-75
2022/05/20 00:15:22;;;;;;;333.15;136.25;;;;;;;14.65;61.00;100680.00;338562;29;1389;-75
2022/05/20 00:15:33;;;;;;;329.90;133.30;;;;;;;14.64;61.29;100673.03;335990;29;1271;-75
2022/05/20 00:15:43;;;;;;;330.67;133.07;;;;;;;14.62;60.89;100673.09;338059;29;1007;-75
2022/05/20 00:15:54;;;;;;;333.38;134.77;;;;;;;14.64;61.00;100676.53;337278;29;1353;-75
2022/05/20 00:16:04;;;;;;;334.83;136.30;;;;;;;14.63;60.82;100671.31;335994;29;1178;-75
2022/05/20 00:16:15;;;;;;;331.40;135.15;;;;;;;14.64;60.79;100673.88;339905;29;985;-75
2022/05/20 00:16:26;;;;;;;327.25;133.63;;;;;;;14.65;60.74;100674.75;341251;29;1451;-76
2022/05/20 00:16:37;;;;;;;327.67;133.43;;;;;;;14.62;60.41;100669.59;338543;29;1407;-76
2022/05/20 00:16:48;;;;;;;328.40;133.67;;;;;;;14.64;60.20;100675.66;335986;29;1449;-76
2022/05/20 00:17:04;;;;;;;329.17;133.75;;;;;;;14.65;60.28;100672.09;338506;29;1379;-76
2022/05/20 00:17:14;;;;;;;328.77;134.05;;;;;;;14.60;60.60;100666.16;340739;29;1280;-76
2022/05/20 00:17:24;;;;;;;329.52;133.88;;;;;;;14.61;60.23;100671.38;340256;29;2007;-76
2022/05/20 00:17:35;;;;;;;329.47;133.43;;;;;;;14.60;60.26;100672.28;338583;29;1431;-76
2022/05/20 00:17:45;;;;;;;326.92;131.88;;;;;;;14.59;59.88;100664.44;338625;29;1344;-76
2022/05/20 00:17:56;;;;;;;328.77;133.27;;;;;;;14.56;59.81;100675.09;342547;28;1169;-76
2022/05/20 00:18:06;;;;;;;328.33;133.85;;;;;;;14.57;60.00;100666.28;338580;29;1312;-76
2022/05/20 00:18:17;;;;;;;330.17;135.67;;;;;;;14.58;60.03;100673.28;337233;29;1189;-76
2022/05/20 00:18:27;;;;;;;328.40;135.10;;;;;;;14.58;59.89;100668.00;340144;29;1329;-76
2022/05/20 00:18:38;;;;;;;328.38;133.48;;;;;;;14.57;60.09;100671.56;338700;29;994;-76
2022/05/20 00:18:48;;;;;;;330.10;135.20;;;;;;;14.57;60.09;100666.28;338587;29;1179;-76
2022/05/20 00:18:59;;;;;;;331.77;133.93;;;;;;;14.55;59.96;100671.63;339817;29;1303;-76
2022/05/20 00:19:09;;;;;;;330.77;134.32;;;;;;;14.55;59.95;100678.66;339977;29;897;-76
2022/05/20 00:19:20;;;;;;;330.53;133.33;;;;;;;14.55;59.96;100668.13;337257;29;982;-76
2022/05/20 00:19:31;;;;;;;330.75;133.93;;;;;;;14.55;60.20;100673.41;338510;29;1332;-76
2022/05/20 00:19:41;;;;;;;331.17;133.70;;;;;;;14.53;59.65;100670.81;337093;29;1531;-76
2022/05/20 00:19:52;;;;;;;331.33;133.73;;;;;;;14.52;59.78;100669.09;337303;29;1025;-76
2022/05/20 00:20:04;;;;;;;330.20;134.00;;;;;;;14.52;60.54;100669.09;340921;29;1892;-76
2022/05/20 00:20:16;;;;;;;328.10;132.32;;;;;;;14.51;60.18;100671.81;337259;29;1648;-76
2022/05/20 00:20:27;;;;;;;327.05;131.07;;;;;;;14.50;60.07;100681.47;336750;29;1907;-76
2022/05/20 00:20:38;;;;;;;328.77;132.88;;;;;;;14.51;60.18;100677.06;337309;29;1437;-76
2022/05/20 00:20:48;;;;;;;329.57;133.57;;;;;;;14.50;59.97;100673.56;337195;29;827;-76
2022/05/20 00:20:59;;;;;;;330.38;135.63;;;;;;;14.50;59.65;100670.09;337581;29;1217;-76
2022/05/20 00:21:09;;;;;;;328.37;133.60;;;;;;;14.50;59.88;100675.34;337332;29;1189;-76
2022/05/20 00:21:20;;;;;;;328.17;132.57;;;;;;;14.51;59.98;100677.06;338586;29;1332;-76
2022/05/20 00:21:31;;;;;;;330.03;133.10;;;;;;;14.50;59.99;100676.22;338420;29;1682;-76
2022/05/20 00:21:41;;;;;;;333.35;134.55;;;;;;;14.51;60.23;100671.81;339994;29;964;-76
2022/05/20 00:21:51;;;;;;;334.77;135.32;;;;;;;14.49;60.06;100669.22;340103;29;1033;-76
2022/05/20 00:22:02;;;;;;;336.37;135.30;;;;;;;14.49;59.99;100673.63;339810;28;1283;-76
2022/05/20 00:22:13;;;;;;;336.38;136.38;;;;;;;14.50;60.29;100675.34;337229;29;1225;-76
2022/05/20 00:22:23;;;;;;;332.20;134.67;;;;;;;14.51;60.53;100677.94;338546;29;1437;-76
2022/05/20 00:22:33;;;;;;;330.67;134.60;;;;;;;14.49;60.14;100678.91;341352;28;1627;-76
2022/05/20 00:22:44;;;;;;;329.73;135.63;;;;;;;14.49;60.09;100671.84;337239;29;1186;-76
2022/05/20 00:22:55;;;;;;;333.77;138.25;;;;;;;14.49;60.37;100668.38;339877;29;1038;-76
2022/05/20 00:23:05;;;;;;;333.65;137.80;;;;;;;14.49;60.26;100674.50;342524;28;1291;-76
2022/05/20 00:23:15;;;;;;;334.50;136.60;;;;;;;14.49;60.43;100678.91;339441;29;1551;-76
2022/05/20 00:23:26;;;;;;;330.08;133.95;;;;;;;14.48;60.49;100671.91;337412;29;815;-76
2022/05/20 00:23:36;;;;;;;330.70;133.77;;;;;;;14.52;60.36;100669.09;337201;29;1191;-75
2022/05/20 00:23:47;;;;;;;330.17;132.20;;;;;;;14.54;60.35;100672.53;339884;29;1171;-76
2022/05/20 00:23:57;;;;;;;334.00;134.93;;;;;;;14.53;60.16;100681.34;337267;29;1084;-76
2022/05/20 00:24:08;;;;;;;330.45;132.75;;;;;;;14.52;60.59;100670.88;334023;29;4331;-76
2022/05/20 00:24:18;;;;;;;331.90;135.67;;;;;;;14.50;60.63;100664.81;337689;29;2983;-76
2022/05/20 00:24:29;;;;;;;329.75;133.95;;;;;;;14.50;60.90;100675.34;338564;29;1358;-76
2022/05/20 00:25:45;;;;;;;336.30;139.10;;;;;;;14.49;60.51;100674.50;334247;29;2115;-76
2022/05/20 00:25:48;;;;;;;325.67;130.73;;;;;;;14.48;60.99;100679.81;335967;29;777;-76
2022/05/20 00:25:58;;;;;;;326.48;130.27;;;;;;;14.45;60.92;100677.31;338568;29;1274;-76
2022/05/20 00:26:09;;;;;;;330.63;133.00;;;;;;;14.43;61.16;100679.16;338649;29;1283;-76
2022/05/20 00:26:19;;;;;;;332.65;135.43;;;;;;;14.40;61.34;100676.59;335829;29;1251;-76
2022/05/20 00:26:30;;;;;;;333.63;136.67;;;;;;;14.38;61.45;100681.06;337365;29;1187;-76
2022/05/20 00:26:40;;;;;;;332.73;135.00;;;;;;;14.37;61.38;100674.09;341264;29;1234;-76
2022/05/20 00:26:50;;;;;;;331.30;132.93;;;;;;;14.38;61.52;100681.94;341114;29;873;-76
2022/05/20 00:27:01;;;;;;;333.27;134.33;;;;;;;14.40;61.58;100679.22;338688;29;1183;-76
2022/05/20 00:27:11;;;;;;;334.02;136.18;;;;;;;14.39;61.10;100678.38;334925;29;1795;-76
2022/05/20 00:27:23;;;;;;;336.08;137.18;;;;;;;14.41;61.49;100676.56;338397;29;1644;-76
2022/05/20 00:27:33;;;;;;;335.17;135.23;;;;;;;14.40;61.38;100680.09;338553;29;1332;-76
2022/05/20 00:27:43;;;;;;;333.50;131.37;;;;;;;14.42;61.26;100674.78;337390;29;1331;-76
2022/05/20 00:27:54;;;;;;;334.90;132.95;;;;;;;14.42;61.32;100677.44;338456;29;1277;-75
2022/05/20 00:28:04;;;;;;;336.20;135.40;;;;;;;14.42;61.58;100680.91;338516;29;1385;-75
2022/05/20 00:28:26;;;;;;;338.30;137.40;;;;;;;14.43;61.53;100682.63;338364;29;1459;-75
2022/05/20 00:28:37;;;;;;;332.45;133.93;;;;;;;14.45;61.22;100672.03;337267;29;1326;-76
2022/05/20 00:28:48;;;;;;;332.07;135.30;;;;;;;14.46;61.31;100679.03;337232;29;1198;-76
2022/05/20 00:28:59;;;;;;;333.70;136.35;;;;;;;14.48;61.21;100671.91;337260;29;1059;-76
2022/05/20 00:29:09;;;;;;;334.40;135.57;;;;;;;14.48;61.02;100672.78;338513;29;1198;-76
2022/05/20 00:29:19;;;;;;;334.60;135.65;;;;;;;14.48;61.39;100672.78;336817;29;2064;-76
2022/05/20 00:29:30;;;;;;;334.63;136.67;;;;;;;14.50;61.15;100675.34;342103;28;1230;-76
2022/05/20 00:29:40;;;;;;;334.20;136.80;;;;;;;14.48;61.18;100674.56;339533;29;1408;-76
2022/05/20 00:29:51;;;;;;;333.95;135.68;;;;;;;14.48;61.13;100670.16;337216;29;918;-76
2022/05/20 00:30:01;;;;;;;336.13;137.33;;;;;;;14.48;61.28;100672.78;335938;29;1333;-76
2022/05/20 00:30:12;;;;;;;339.13;139.27;;;;;;;14.45;61.06;100669.41;336795;29;1385;-76
2022/05/20 00:30:22;;;;;;;335.90;137.98;;;;;;;14.45;60.98;100672.03;336571;29;1440;-76
2022/05/20 00:30:33;;;;;;;334.93;138.17;;;;;;;14.45;61.03;100677.31;340155;29;1408;-76
2022/05/20 00:30:44;;;;;;;335.67;137.75;;;;;;;14.43;60.87;100668.59;340009;29;969;-76
2022/05/20 00:31:04;;;;;;;338.17;138.45;;;;;;;14.42;60.89;100672.16;337150;29;1280;-76
2022/05/20 00:31:15;;;;;;;333.83;135.43;;;;;;;14.41;60.93;100676.56;339814;29;1475;-76
2022/05/20 00:31:25;;;;;;;332.48;135.23;;;;;;;14.39;60.79;100669.63;339842;29;1277;-76
2022/05/20 00:31:36;;;;;;;334.27;136.07;;;;;;;14.40;60.79;100676.59;337377;29;851;-76
2022/05/20 00:31:46;;;;;;;333.42;135.13;;;;;;;14.40;60.94;100671.34;338665;29;840;-76
2022/05/20 00:31:56;;;;;;;336.70;134.07;;;;;;;14.42;61.00;100672.16;341088;28;1610;-76
2022/05/20 00:32:07;;;;;;;335.40;132.95;;;;;;;14.43;60.63;100671.25;336023;29;776;-76
2022/05/20 00:32:17;;;;;;;336.33;134.23;;;;;;;14.45;60.66;100672.03;338674;29;925;-76
2022/05/20 00:32:28;;;;;;;335.38;135.00;;;;;;;14.44;60.76;100670.31;335980;29;1420;-76
2022/05/20 00:32:40;;;;;;;337.27;137.13;;;;;;;14.42;61.02;100669.53;339855;29;846;-76
2022/05/20 00:32:52;;;;;;;337.85;137.45;;;;;;;14.42;60.73;100673.03;338085;29;1464;-76
2022/05/20 00:33:02;;;;;;;337.73;136.63;;;;;;;14.46;60.75;100671.97;335901;29;1352;-76
2022/05/20 00:33:13;;;;;;;340.05;136.95;;;;;;;14.44;60.46;100665.06;336163;29;1006;-76
2022/05/20 00:33:25;;;;;;;337.88;136.20;;;;;;;14.41;60.75;100670.41;337180;29;3892;-76
2022/05/20 00:33:36;;;;;;;337.70;136.38;;;;;;;14.42;60.84;100666.91;339380;29;2900;-76
2022/05/20 00:33:47;;;;;;;339.77;136.48;;;;;;;14.37;61.00;100660.91;335895;29;1353;-76
2022/05/20 00:33:57;;;;;;;342.80;138.80;;;;;;;14.39;60.80;100664.34;336002;29;2898;-76
2022/05/20 00:34:08;;;;;;;344.95;139.98;;;;;;;14.41;61.05;100670.41;338102;29;1674;-76
2022/05/20 00:34:18;;;;;;;344.10;140.60;;;;;;;14.40;61.08;100666.06;341160;29;945;-76
2022/05/20 00:34:28;;;;;;;340.92;137.50;;;;;;;14.39;60.97;100666.97;338540;29;1233;-76
2022/05/20 00:34:39;;;;;;;340.00;137.50;;;;;;;14.39;60.57;100666.97;336036;29;1434;-76
2022/05/20 00:34:49;;;;;;;337.35;136.07;;;;;;;14.37;61.00;100669.69;339038;29;1346;-76
2022/05/20 00:35:00;;;;;;;341.07;140.27;;;;;;;14.36;60.81;100667.09;339969;29;866;-76
2022/05/20 00:35:10;;;;;;;342.70;140.02;;;;;;;14.39;60.77;100666.97;337105;29;1692;-76
2022/05/20 00:35:21;;;;;;;343.17;140.63;;;;;;;14.41;60.70;100675.69;335862;29;1397;-76
2022/05/20 00:35:32;;;;;;;338.88;137.73;;;;;;;14.41;60.65;100668.66;340095;29;1346;-76
2022/05/20 00:35:42;;;;;;;336.35;137.00;;;;;;;14.39;60.73;100672.25;339707;29;1323;-77
2022/05/20 00:35:53;;;;;;;339.73;137.77;;;;;;;14.41;60.55;100667.78;336182;29;1162;-77
2022/05/20 00:36:04;;;;;;;341.15;136.35;;;;;;;14.42;60.40;100667.75;339928;29;1216;-76
2022/05/20 00:36:15;;;;;;;341.63;135.18;;;;;;;14.39;60.43;100662.56;339874;29;1351;-76
2022/05/20 00:36:25;;;;;;;335.80;133.67;;;;;;;14.39;60.40;100673.09;337288;29;1202;-76
2022/05/20 00:36:36;;;;;;;333.17;133.45;;;;;;;14.37;60.56;100672.31;336162;29;831;-76
2022/05/20 00:36:47;;;;;;;332.27;132.77;;;;;;;14.36;60.72;100675.00;339894;29;1142;-76
2022/05/20 00:36:57;;;;;;;337.20;134.23;;;;;;;14.36;60.42;100672.38;339799;29;1201;-76
2022/05/20 00:37:07;;;;;;;340.37;135.93;;;;;;;14.32;60.68;100667.22;337328;29;1290;-76
2022/05/20 00:37:18;;;;;;;342.08;135.98;;;;;;;14.32;60.82;100672.47;339788;29;1389;-76
2022/05/20 00:37:28;;;;;;;339.97;135.47;;;;;;;14.30;61.07;100662.94;339940;29;842;-76
2022/05/20 00:37:40;;;;;;;337.15;134.07;;;;;;;14.30;61.10;100669.06;337285;29;1415;-76
2022/05/20 00:37:50;;;;;;;335.98;133.70;;;;;;;14.30;61.09;100671.69;338475;29;1673;-76
2022/05/20 00:38:01;;;;;;;334.50;134.60;;;;;;;14.30;61.22;100671.69;338857;29;882;-76
2022/05/20 00:38:12;;;;;;;336.40;135.73;;;;;;;14.31;61.14;100672.53;335979;29;1238;-76
2022/05/20 00:38:23;;;;;;;334.65;132.93;;;;;;;14.31;61.26;100668.13;339925;29;1958;-76
2022/05/20 00:38:33;;;;;;;336.27;132.32;;;;;;;14.34;61.36;100677.69;338793;29;2886;-76
2022/05/20 00:38:44;;;;;;;337.40;135.00;;;;;;;14.35;61.16;100679.41;339264;29;3091;-76
2022/05/20 00:38:55;;;;;;;341.48;139.75;;;;;;;14.35;61.17;100675.91;335840;29;1357;-76
2022/05/20 00:39:05;;;;;;;341.50;139.33;;;;;;;14.35;61.24;100676.78;335685;29;1860;-76
2022/05/20 00:39:15;;;;;;;341.67;138.93;;;;;;;14.33;61.44;100673.34;335846;29;3441;-76
2022/05/20 00:39:26;;;;;;;338.00;136.57;;;;;;;14.35;61.61;100675.91;337291;29;826;-76
2022/05/20 00:39:36;;;;;;;335.33;136.15;;;;;;;14.35;61.34;100679.41;338597;29;1708;-76
2022/05/20 00:39:47;;;;;;;333.27;135.20;;;;;;;14.36;61.14;100675.84;336043;29;1283;-76
2022/05/20 00:39:57;;;;;;;335.90;135.85;;;;;;;14.38;61.38;100673.16;336060;29;866;-76
2022/05/20 00:40:10;;;;;;;338.40;134.70;;;;;;;14.37;61.53;100674.09;338852;29;1575;-76
2022/05/20 00:40:23;;;;;;;337.23;134.07;;;;;;;14.35;61.49;100675.91;336996;29;1424;-76
2022/05/20 00:40:33;;;;;;;334.17;132.43;;;;;;;14.30;61.68;100676.97;338710;29;1982;-76
2022/05/20 00:40:44;;;;;;;332.42;130.68;;;;;;;14.31;61.69;100675.19;338773;29;1267;-76
2022/05/20 00:40:55;;;;;;;334.58;131.43;;;;;;;14.31;61.47;100676.03;335915;29;1061;-76
2022/05/20 00:41:06;;;;;;;337.05;131.32;;;;;;;14.31;61.63;100673.41;339913;29;1221;-76
2022/05/20 00:41:16;;;;;;;340.48;132.57;;;;;;;14.33;61.63;100673.34;337154;29;1201;-76
2022/05/20 00:41:27;;;;;;;339.73;132.20;;;;;;;14.32;61.41;100671.63;334668;29;1540;-76
2022/05/20 00:41:37;;;;;;;336.73;133.63;;;;;;;14.33;61.61;100679.47;341184;29;1486;-76
2022/05/20 00:41:48;;;;;;;334.98;134.40;;;;;;;14.36;61.47;100675.00;341380;29;1222;-76
2022/05/20 00:41:58;;;;;;;333.55;135.30;;;;;;;14.35;61.85;100678.56;338537;29;1396;-76
2022/05/20 00:42:18;;;;;;;336.80;134.80;;;;;;;14.33;61.76;100674.19;338349;29;947;-76
2022/05/20 00:42:28;;;;;;;334.88;132.52;;;;;;;14.31;61.59;100670.78;338628;29;894;-76
2022/05/20 00:42:38;;;;;;;332.92;132.93;;;;;;;14.30;61.93;100665.56;338575;29;1246;-75
2022/05/20 00:42:50;;;;;;;334.30;134.30;;;;;;;14.31;61.88;100669.91;336052;29;1654;-75
2022/05/20 00:43:29;;;;;;;335.00;134.20;;;;;;;14.36;61.55;100672.38;339743;29;1322;-75
2022/05/20 00:43:46;;;;;;;334.70;131.63;;;;;;;14.30;61.48;100676.97;335764;29;1452;-75
2022/05/20 00:43:58;;;;;;;339.13;134.27;;;;;;;14.29;61.53;100675.28;340815;28;1465;-75
2022/05/20 00:44:08;;;;;;;337.45;134.00;;;;;;;14.30;61.82;100674.31;337310;29;862;-75
2022/05/20 00:44:19;;;;;;;337.65;133.48;;;;;;;14.28;61.83;100659.53;340492;29;1373;-75
2022/05/20 00:44:29;;;;;;;334.07;133.17;;;;;;;14.26;61.71;100670.13;339914;29;1349;-75
2022/05/20 00:44:40;;;;;;;337.08;135.90;;;;;;;14.25;61.76;100665.78;338573;29;894;-75
2022/05/20 00:44:51;;;;;;;339.40;137.48;;;;;;;14.28;61.84;100672.69;337235;29;818;-75
2022/05/20 00:45:04;;;;;;;342.73;138.33;;;;;;;14.25;61.58;100676.31;336178;29;1659;-75
2022/05/20 00:45:16;;;;;;;342.23;135.63;;;;;;;14.23;61.60;100672.00;337262;29;802;-75
2022/05/20 00:45:26;;;;;;;338.85;134.38;;;;;;;14.20;61.83;100670.34;335970;29;866;-75
2022/05/20 00:45:37;;;;;;;340.63;135.85;;;;;;;14.22;61.80;100668.53;339814;29;1426;-75
2022/05/20 00:45:47;;;;;;;337.90;135.93;;;;;;;14.24;62.05;100666.69;340268;29;1329;-75
2022/05/20 00:46:00;;;;;;;337.52;134.27;;;;;;;14.24;61.88;100674.59;341155;29;1091;-75
2022/05/20 00:46:19;;;;;;;335.27;131.20;;;;;;;14.23;61.83;100667.59;335883;29;1338;-75
2022/05/20 00:46:31;;;;;;;332.00;131.40;;;;;;;14.22;62.05;100668.53;339901;29;946;-75
2022/05/20 00:46:42;;;;;;;329.55;132.20;;;;;;;14.21;61.78;100669.44;339900;29;1502;-75
2022/05/20 00:46:52;;;;;;;330.60;132.52;;;;;;;14.21;61.87;100666.81;337211;29;1629;-75
2022/05/20 00:47:03;;;;;;;330.47;134.07;;;;;;;14.24;62.15;100664.06;337415;29;858;-75
2022/05/20 00:47:13;;;;;;;328.60;130.88;;;;;;;14.23;61.79;100672.88;338639;29;1056;-75
2022/05/20 00:47:24;;;;;;;325.40;130.43;;;;;;;14.22;61.98;100671.16;337299;29;1227;-75
2022/05/20 00:47:34;;;;;;;324.25;127.28;;;;;;;14.21;61.96;100669.44;340731;29;1595;-75
2022/05/20 00:47:45;;;;;;;325.13;129.87;;;;;;;14.21;61.78;100668.59;336986;29;3030;-75
2022/05/20 00:47:55;;;;;;;328.02;131.68;;;;;;;14.20;61.69;100666.88;338325;29;1229;-75
2022/05/20 00:48:06;;;;;;;333.23;135.60;;;;;;;14.19;61.81;100668.66;335795;29;1209;-75
2022/05/20 00:48:16;;;;;;;334.67;134.93;;;;;;;14.19;61.81;100668.66;335827;29;1219;-75
2022/05/20 00:48:28;;;;;;;332.83;132.70;;;;;;;14.21;61.99;100664.19;341239;29;3360;-75
2022/05/20 00:48:38;;;;;;;331.33;130.82;;;;;;;14.23;61.80;100664.97;338717;29;1423;-75
2022/05/20 00:48:56;;;;;;;331.03;131.53;;;;;;;14.23;61.50;100667.59;334541;29;1199;-75
2022/05/20 00:49:11;;;;;;;334.02;133.95;;;;;;;14.27;61.53;100663.94;339759;29;1488;-75
2022/05/20 00:49:21;;;;;;;331.15;132.35;;;;;;;14.22;61.70;100671.16;338473;29;1272;-75
2022/05/20 00:49:32;;;;;;;328.13;131.43;;;;;;;14.22;61.77;100665.91;339894;29;1628;-76
2022/05/20 00:49:47;;;;;;;329.47;130.97;;;;;;;14.24;61.77;100664.06;339807;29;1241;-75
2022/05/20 00:49:58;;;;;;;327.02;127.28;;;;;;;14.25;61.38;100671.03;338612;29;977;-75
2022/05/20 00:50:14;;;;;;;326.42;127.47;;;;;;;14.25;61.70;100670.19;336951;29;1843;-75
2022/05/20 00:50:24;;;;;;;327.30;129.80;;;;;;;14.25;61.38;100673.69;338703;29;1352;-75
2022/05/20 00:50:38;;;;;;;326.07;129.10;;;;;;;14.21;61.68;100666.81;337175;29;1344;-75
2022/05/20 00:50:55;;;;;;;326.25;131.27;;;;;;;14.20;61.68;100666.88;337099;29;1295;-75
2022/05/20 00:51:32;;;;;;;330.38;132.45;;;;;;;14.17;61.75;100666.97;338630;29;1396;-75
2022/05/20 00:51:45;;;;;;;327.00;128.57;;;;;;;14.18;61.86;100668.69;334691;29;903;-75
2022/05/20 00:51:55;;;;;;;329.55;129.57;;;;;;;14.17;61.68;100659.94;334059;29;1824;-75
2022/05/20 00:52:07;;;;;;;330.13;130.80;;;;;;;14.17;61.74;100665.22;334757;29;961;-75